Hopkins, MI (49328)

11:34 AM EST on February 07, 2016 (GMT -0500)
KMIHOPKI2 | | Change Station
CLOSE
Current Station
Personal Weather Station
Location: Hopkins, MI
Elevation: 732 ft
Nearby Weather Stations

Elev 732 ft 42.64 °N, 85.68 °W | Updated 4 seconds ago

Overcast
Overcast
43.2 °F
Feels Like 37 °F
N
12.0
Wind Variable Wind from SSW
Gusts 14.0 mph

Today
High -- | Low -- °F
--% Chance of Precip.
Yesterday
High -- | Low -- °F
Precip. -- in
Pressure 29.81 in
Visibility 10.0 miles
Clouds Mostly Cloudy 10000 ft
Windchill 37 °F
Dew Point 34 °F
Humidity 70%
Rainfall 0.02 in
Snow Depth Not available.
7:50 AM 6:03 PM
Waning Crescent, 1% visible
METAR KBIV 071553Z AUTO 21014G23KT 10SM BKN100 06/M01 A2979 RMK AO2 SLP094 T00561011
Pressure 29.81 in
Visibility 10.0 miles
Clouds Mostly Cloudy 10000 ft
Windchill 37 °F
Dew Point 34 °F
Humidity 70%
Rainfall 0.02 in
Snow Depth Not available.
7:50 AM 6:03 PM
Waning Crescent, 1% visible
METAR KBIV 071553Z AUTO 21014G23KT 10SM BKN100 06/M01 A2979 RMK AO2 SLP094 T00561011

10-Day Weather Forecast

Almanac

Astronomy

Feb. 07, 2016 Rise Set
Actual Time
Civil Twilight
Nautical Twilight
Astronomical Twilight
Moon
Length of Visible Light
Length of Day
Tomorrow will be .
, % of the Moon is Illuminated

Today's Extremes

State Highs State Lows

Community

WunderPhotos

Upload Photos

1,891,228 photos uploaded!

WunderBlog® & News

Nearby

Air Quality

  Air Quality AQ Index Pollutant
Not available.

Snow Depth

Station Depth Elevation

Earthquake Activity

City Distance Mag. Time & Date
Minimum magnitude displayed is 2.5.

Coastal Water Temperatures

Place Temperature

Stations

Nearby Weather Stations

Station Location Temp. Windchill Dew Point Humidity Wind Precip. Elev Updated Type
                   

Watches & Warnings

There are currently no watches in effect.